• Join FlightAware (Why Join?)
  • Login
  • US Flag 
08:57PM EDT


 

Airport Tracker/Info


-or-


 

Live Flight TrackerFlight Track Log ✈ CTL22 ✈ 24-Apr-2013 ✈ KBKL - KGRR

Flight Track Log - Related Links

Times and Time Zones

All times are in EDT time to prevent confusion due to time zone crossing. See the CTL22 flight status page for this flight to view local times or setup timezone preferences in your user account.

Time Position Orientation Groundspeed Altitude Reporting Facility
EDT Latitude Longitude Course Direction KTS MPH feet Rate Location/Type
09:00PM 41.5353 -81.7289 314° West 112 129 2,100  Level Cleveland Center
09:01PM 41.5578 -81.7708 306° West 144 166 2,000 240 Descending Cleveland Center
09:02PM 41.5781 -81.8156 301° West 133 153 2,700 840 Climbing Cleveland Center
09:03PM 41.5922 -81.8492 299° West 113 130 3,700 1,020 Climbing Cleveland Center
09:04PM 41.6128 -81.8856 307° West 121 139 4,700 960 Climbing Cleveland Center
09:05PM 41.6289 -81.9222 300° West 125 144 5,600 780 Climbing Cleveland Center
09:06PM 41.6411 -81.9472 303° West 127 146 6,100 420 Climbing Cleveland Center
09:06PM 41.6494 -81.9669 299° West 131 151 6,100  Level Cleveland Center
09:07PM 41.6636 -81.9922 307° West 145 167 6,100  Level Cleveland Center
09:07PM 41.6697 -82.0147 290° West 150 173 6,100 -120 Level Cleveland Center
09:08PM 41.6839 -82.0400 307° West 151 174 6,000 -60 Descending Cleveland Center
09:09PM 41.7083 -82.0878 304° West 157 181 6,000  Level Cleveland Center
09:10PM 41.7283 -82.1411 297° West 156 180 6,100  Climbing Cleveland Center
09:11PM 41.7528 -82.1864 306° West 156 180 6,000 -60 Descending Cleveland Center
09:12PM 41.7769 -82.2369 303° West 161 185 6,000  Level Cleveland Center
09:13PM 41.7994 -82.2822 304° West 161 185 6,000 -60 Level Cleveland Center
09:14PM 41.8217 -82.3219 307° West 152 175 5,900  Descending Cleveland Center
09:15PM 41.8481 -82.3783 302° West 156 180 6,000  Climbing Cleveland Center
09:16PM 41.8661 -82.4150 303° West 155 178 5,900  Descending Cleveland Center
09:16PM 41.8681 -82.4261 283° West 156 180 6,000 60 Climbing Cleveland Center
09:17PM 41.8903 -82.4658 307° West 155 178 6,000  Level Cleveland Center
09:17PM 41.8944 -82.4744 303° West 156 180 6,000 -120 Level Cleveland Center
09:18PM 41.9103 -82.5111 300° West 156 180 5,900 -120 Descending Cleveland Center
09:18PM 41.9164 -82.5253 300° West 156 180 5,900  Level Cleveland Center
09:19PM 41.9325 -82.5619 301° West 156 180 5,900  Level Cleveland Center
09:19PM 41.9386 -82.5706 314° West 156 180 5,900  Level Cleveland Center
09:20PM 41.9586 -82.6186 299° West 160 184 5,900  Level Cleveland Center
09:20PM 41.9606 -82.6244 294° West 161 185 5,900 60 Level Cleveland Center
09:21PM 41.9847 -82.6728 304° West 161 185 6,000  Climbing Cleveland Center
09:22PM 42.0047 -82.7125 304° West 156 180 5,900  Descending Cleveland Center
09:22PM 42.0108 -82.7211 314° West 161 185 6,000 60 Climbing Cleveland Center
09:23PM 42.0353 -82.7553 314° West 155 178 6,000  Level Cleveland Center
09:24PM 42.0656 -82.8011 312° West 151 174 6,000  Level Cleveland Center
09:25PM 42.0900 -82.8411 309° West 151 174 6,000  Level Cleveland Center
09:26PM 42.1203 -82.8814 315° West 151 174 6,000  Level Cleveland Center
09:27PM 42.1381 -82.9408 292° West 154 177 6,000  Level Cleveland Center
09:29PM 42.1775 -83.0631 294° West 153 176 6,100 60 Climbing FAA TRACON SMA TRACON (SMA)
09:30PM 42.1828 -83.0839 289° West 153 176 6,200 -180 Climbing FAA TRACON SMA TRACON (SMA)
09:30PM 42.1872 -83.1008 289° West 154 177 6,000 -300 Descending FAA TRACON SMA TRACON (SMA)
09:30PM 42.1908 -83.1181 286° West 155 178 6,000  Level FAA TRACON SMA TRACON (SMA)
09:31PM 42.1958 -83.1400 287° West 156 180 6,000  Level FAA TRACON SMA TRACON (SMA)
09:31PM 42.2006 -83.1572 290° West 157 181 6,000  Level FAA TRACON SMA TRACON (SMA)
09:31PM 42.2047 -83.1744 288° West 158 182 6,000  Level FAA TRACON SMA TRACON (SMA)
09:32PM 42.2100 -83.1958 288° West 156 180 6,000  Level FAA TRACON SMA TRACON (SMA)
09:32PM 42.2153 -83.2122 294° West 155 178 6,000  Level FAA TRACON SMA TRACON (SMA)
09:32PM 42.2211 -83.2286 296° West 155 178 6,000  Level FAA TRACON SMA TRACON (SMA)
09:33PM 42.2267 -83.2447 295° West 155 178 6,000  Level FAA TRACON SMA TRACON (SMA)
09:33PM 42.2331 -83.2653 293° West 153 176 6,000  Level FAA TRACON SMA TRACON (SMA)
09:33PM 42.2381 -83.2808 293° West 154 177 6,000  Level FAA TRACON SMA TRACON (SMA)
09:34PM 42.2447 -83.3006 295° West 156 180 6,000 -180 Level FAA TRACON SMA TRACON (SMA)
09:34PM 42.2478 -83.3178 283° West 160 184 5,900  Descending FAA TRACON SMA TRACON (SMA)
09:34PM 42.2533 -83.3383 290° West 156 180 6,000  Climbing FAA TRACON SMA TRACON (SMA)
09:35PM 42.2581 -83.3544 292° West 157 181 5,900  Descending FAA TRACON SMA TRACON (SMA)
09:35PM 42.2622 -83.3744 286° West 155 178 6,000 120 Climbing FAA TRACON SMA TRACON (SMA)
09:35PM 42.2658 -83.3914 286° West 152 175 6,000  Level FAA TRACON SMA TRACON (SMA)
09:35PM 42.2719 -83.4117 292° West 153 176 6,000  Level FAA TRACON SMA TRACON (SMA)
09:36PM 42.2772 -83.4278 294° West 150 173 6,000 -180 Level FAA TRACON SMA TRACON (SMA)
09:36PM 42.2839 -83.4431 301° West 153 176 5,900  Descending FAA TRACON SMA TRACON (SMA)
09:37PM 42.2900 -83.4636 292° West 148 170 6,000 120 Climbing FAA TRACON SMA TRACON (SMA)
09:37PM 42.2950 -83.4800 292° West 149 171 6,000  Level FAA TRACON SMA TRACON (SMA)
09:37PM 42.3000 -83.4961 293° West 151 174 6,000  Level FAA TRACON SMA TRACON (SMA)
09:38PM 42.3064 -83.5167 293° West 153 176 6,000  Level FAA TRACON SMA TRACON (SMA)
09:38PM 42.3117 -83.5325 294° West 151 174 6,000  Level FAA TRACON SMA TRACON (SMA)
09:38PM 42.3186 -83.5525 295° West 152 175 6,000  Level FAA TRACON SMA TRACON (SMA)
09:39PM 42.3236 -83.5692 292° West 154 177 6,000  Level FAA TRACON SMA TRACON (SMA)
09:39PM 42.3292 -83.5856 295° West 155 178 6,000  Level FAA TRACON SMA TRACON (SMA)
09:39PM 42.3358 -83.6056 294° West 153 176 6,000  Level FAA TRACON SMA TRACON (SMA)
09:40PM 42.3411 -83.6217 294° West 153 176 6,000  Level FAA TRACON SMA TRACON (SMA)
09:40PM 42.3467 -83.6381 295° West 154 177 6,000  Level FAA TRACON SMA TRACON (SMA)
09:40PM 42.3528 -83.6586 292° West 154 177 6,000  Level FAA TRACON SMA TRACON (SMA)
09:41PM 42.3572 -83.6753 290° West 153 176 6,000  Level FAA TRACON SMA TRACON (SMA)
09:41PM 42.3619 -83.6917 291° West 152 175 6,000  Level FAA TRACON SMA TRACON (SMA)
09:41PM 42.3678 -83.7122 291° West 151 174 6,000  Level FAA TRACON SMA TRACON (SMA)
09:42PM 42.3728 -83.7281 293° West 151 174 6,000  Level FAA TRACON SMA TRACON (SMA)
09:42PM 42.3778 -83.7442 293° West 151 174 6,000  Level FAA TRACON SMA TRACON (SMA)
09:42PM 42.3828 -83.7600 293° West 149 171 6,000  Level FAA TRACON SMA TRACON (SMA)
09:43PM 42.3886 -83.7803 291° West 151 174 6,000  Level FAA TRACON SMA TRACON (SMA)
09:43PM 42.3936 -83.7964 293° West 151 174 6,000  Level FAA TRACON SMA TRACON (SMA)
09:43PM 42.3992 -83.8122 295° West 150 173 6,000  Level FAA TRACON SMA TRACON (SMA)
09:44PM 42.4058 -83.8322 294° West 153 176 6,000  Level FAA TRACON SMA TRACON (SMA)
09:44PM 42.4111 -83.8483 294° West 152 175 6,000  Level FAA TRACON SMA TRACON (SMA)
09:44PM 42.4172 -83.8686 292° West 151 174 6,000  Level FAA TRACON SMA TRACON (SMA)
09:45PM 42.4219 -83.8847 292° West 151 174 6,000  Level FAA TRACON SMA TRACON (SMA)
09:45PM 42.4267 -83.9008 292° West 149 171 6,000  Level FAA TRACON SMA TRACON (SMA)
09:45PM 42.4328 -83.9214 292° West 151 174 6,000  Level FAA TRACON SMA TRACON (SMA)
09:46PM 42.4375 -83.9372 292° West 150 173 6,000  Level FAA TRACON SMA TRACON (SMA)
09:46PM 42.4428 -83.9531 294° West 151 174 6,000  Level FAA TRACON SMA TRACON (SMA)
09:46PM 42.4497 -83.9736 295° West 153 176 6,000  Level FAA TRACON SMA TRACON (SMA)
09:47PM 42.4544 -83.9897 292° West 151 174 6,000  Level FAA TRACON SMA TRACON (SMA)
09:47PM 42.4586 -84.0058 289° West 150 173 6,000  Level FAA TRACON SMA TRACON (SMA)
09:47PM 42.4650 -84.0261 293° West 151 174 6,000  Level FAA TRACON SMA TRACON (SMA)
09:48PM 42.4711 -84.0469 292° West 152 175 6,000  Level FAA TRACON SMA TRACON (SMA)
09:48PM 42.4758 -84.0636 291° West 154 177 6,000  Level FAA TRACON SMA TRACON (SMA)
09:48PM 42.4806 -84.0800 291° West 153 176 6,000  Level FAA TRACON SMA TRACON (SMA)
09:49PM 42.4856 -84.0964 292° West 153 176 6,000  Level FAA TRACON SMA TRACON (SMA)
09:49PM 42.4908 -84.1125 294° West 152 175 6,000  Level FAA TRACON SMA TRACON (SMA)
09:49PM 42.4961 -84.1289 294° West 153 176 6,000  Level FAA TRACON SMA TRACON (SMA)
09:50PM 42.5042 -84.1531 294° West 153 176 6,000  Level FAA TRACON SMA TRACON (SMA)
09:50PM 42.5078 -84.1653 292° West 152 175 6,000  Level FAA TRACON SMA TRACON (SMA)
09:50PM 42.5139 -84.1856 292° West 152 175 6,000  Level FAA TRACON SMA TRACON (SMA)
09:51PM 42.5183 -84.2019 290° West 150 173 6,000  Level FAA TRACON SMA TRACON (SMA)
09:51PM 42.5231 -84.2175 292° West 151 174 6,000  Level FAA TRACON SMA TRACON (SMA)
09:51PM 42.5289 -84.2381 291° West 151 174 6,000  Level FAA TRACON SMA TRACON (SMA)
09:52PM 42.5336 -84.2544 291° West 151 174 6,000  Level FAA TRACON SMA TRACON (SMA)
09:52PM 42.5383 -84.2708 291° West 151 174 6,000  Level FAA TRACON SMA TRACON (SMA)
09:52PM 42.5447 -84.2903 294° West 149 171 6,000  Level FAA TRACON SMA TRACON (SMA)
09:53PM 42.5500 -84.3058 295° West 148 170 6,000  Level FAA TRACON SMA TRACON (SMA)
09:53PM 42.5553 -84.3217 294° West 149 171 6,000  Level FAA TRACON SMA TRACON (SMA)
09:53PM 42.5608 -84.3419 290° West 149 171 6,000  Level FAA TRACON SMA TRACON (SMA)
09:54PM 42.5658 -84.3578 293° West 147 169 6,000  Level FAA TRACON SMA TRACON (SMA)
09:54PM 42.5711 -84.3733 295° West 147 169 6,000  Level FAA TRACON SMA TRACON (SMA)
09:54PM 42.5778 -84.3925 295° West 147 169 6,000  Level FAA TRACON SMA TRACON (SMA)
09:55PM 42.5833 -84.4078 296° West 145 167 6,000  Level FAA TRACON SMA TRACON (SMA)
09:55PM 42.5889 -84.4225 297° West 145 167 6,000  Level FAA TRACON SMA TRACON (SMA)
09:55PM 42.5931 -84.4344 295° West 146 168 6,000  Level FAA TRACON SMA TRACON (SMA)
09:57PM 42.6178 -84.5317 289° West 150 173 6,000  Level Chicago Center
09:58PM 42.6342 -84.5836 293° West 150 173 6,100  Climbing Chicago Center
09:59PM 42.6503 -84.6325 294° West 145 167 6,000 -60 Descending Chicago Center
10:00PM 42.6694 -84.6950 293° West 149 171 6,000  Level Chicago Center
10:01PM 42.6850 -84.7461 293° West 148 170 6,000  Level Chicago Center
10:02PM 42.6967 -84.7986 287° West 146 168 6,000  Level Chicago Center
10:03PM 42.7103 -84.8500 290° West 146 168 6,000  Level Chicago Center
10:04PM 42.7228 -84.9031 288° West 146 168 6,000  Level Chicago Center
10:05PM 42.7367 -84.9569 289° West 150 173 6,000  Level Chicago Center
10:06PM 42.7497 -85.0075 289° West 145 167 6,000  Level Chicago Center
10:07PM 42.7642 -85.0608 290° West 149 171 6,000 -240 Level Chicago Center
10:08PM 42.7822 -85.1225 292° West 147 169 5,600 -600 Descending Chicago Center
10:09PM 42.7961 -85.1842 287° West 165 190 4,900 -840 Descending Chicago Center
10:10PM 42.8106 -85.2450 288° West 168 193 4,000 -780 Descending Chicago Center
10:11PM 42.8278 -85.3044 292° West 171 197 3,400 -600 Descending Chicago Center
10:12PM 42.8425 -85.3642 289° West 168 193 2,800 -720 Descending Chicago Center
10:13PM 42.8592 -85.4244 291° West 169 194 2,000 -840 Descending Chicago Center
10:14PM 42.8772 -85.4825 293° West 168 193 1,200 -600 Descending Chicago Center
10:15PM 42.8856 -85.5314 283° West 142 163 800 -420 Descending Chicago Center
10:17PM 42.8808 -85.5228 270° West  Level Estimated
10:24PM 42.8808 -85.5228 270° West  Level Estimated